8A3

Livingston Municipal Airport

Livingston, Tennessee, USA
METAR K8A3 251835Z AUTO 21007G13KT 180V240 10SM SCT029 SCT039 BKN055 26/21 A3009 RMK A01
Observed Flight Rules
Sep-25 @ 18:35 UTC (28 minutes ago) Visual Flight Rules
Wind Visibility Clouds
210° at 7 knots
 Gusting to 13 knots
10 miles
  • Scattered at 2,900' AGL
  • Scattered at 3,900' AGL
  • Broken at 5,500' AGL
Temperatures Readings
Current 26°C / 79°F
Dewpoint 21°C / 70°F
Humidity 74%
Altimeter 30.09" Hg
Pressure 1019 hPa
Elevation 419
METAR K8A3 251835Z AUTO 21007G13KT 180V240 10SM SCT029 SCT039 BKN055 26/21 A3009 RMK A01
Observed Flight Rules
Sep-25 @ 18:35 UTC
(28 minutes ago)
VFR
Wind Visibility
210° at 7 knots
 Gusting to 13 knots
10 miles
Clouds
  • Scattered at 2,900' AGL
  • Scattered at 3,900' AGL
  • Broken at 5,500' AGL
Temperature Dewpoint
26°C / 79°F 21°C / 70°F
Humidity Altimeter Pressure
74% 30.09" Hg 1019 hPa